Time;durP1;ratioP1;P1;durP2;ratioP2;P2;SDS_P1;SDS_P2;PMS_P1;PMS_P2;Temp;Humidity;BMP_temperature;BMP_pressure;BME280_temperature;BME280_humidity;BME280_pressure;Samples;Min_cycle;Max_cycle;Signal;HPM_P1;HPM_P2
2022/03/20 00:02:10;;;;;;;1999.90;999.90;;;;;;;2.36;47.38;163025.88;4982781;28;20054;-67
2022/03/20 00:04:37;;;;;;;1999.90;999.90;;;;;;;2.45;47.51;163051.88;4962557;28;20059;-68
2022/03/20 00:07:04;;;;;;;1999.90;999.90;;;;;;;2.81;46.47;163146.41;4963452;28;20081;-68
2022/03/20 00:09:30;;;;;;;1999.90;999.90;;;;;;;2.32;47.80;163016.28;4951442;28;20137;-67
2022/03/20 00:11:57;;;;;;;1999.90;999.90;;;;;;;2.07;48.84;162949.19;4976309;28;20104;-67
2022/03/20 00:14:24;;;;;;;1999.90;999.90;;;;;;;2.35;47.77;163023.13;4982834;28;20078;-68
2022/03/20 00:16:50;;;;;;;1999.90;999.90;;;;;;;2.08;48.41;162951.94;4961927;28;20701;-67
2022/03/20 00:19:17;;;;;;;1999.90;999.90;;;;;;;2.55;47.64;163076.56;4962121;28;20081;-67
2022/03/20 00:21:43;;;;;;;1999.90;999.90;;;;;;;2.90;46.90;163169.69;4960371;28;20504;-68
2022/03/20 00:24:10;;;;;;;1999.90;999.90;;;;;;;2.16;48.20;162972.47;4975638;28;20432;-67
2022/03/20 00:26:39;;;;;;;1999.90;999.90;;;;;;;1.52;49.90;162802.69;4968954;28;20050;-67
2022/03/20 00:29:06;;;;;;;1999.90;999.90;;;;;;;1.25;51.71;162730.19;4966351;28;20039;-67
2022/03/20 00:31:33;;;;;;;1999.90;999.90;;;;;;;1.53;51.23;162805.44;4974515;28;20460;-67
2022/03/20 00:34:00;;;;;;;1999.90;999.90;;;;;;;1.75;50.52;162865.66;4962146;28;20053;-67
2022/03/20 00:36:27;;;;;;;1999.90;999.90;;;;;;;2.13;49.60;162964.25;4970894;28;20287;-67
2022/03/20 00:38:53;;;;;;;1999.90;999.90;;;;;;;2.24;48.47;162994.38;4970542;28;20085;-67
2022/03/20 00:41:20;;;;;;;1999.90;999.90;;;;;;;1.59;50.58;162821.88;4976773;28;21278;-67
2022/03/20 00:43:46;;;;;;;1999.90;999.90;;;;;;;1.70;50.18;162852.00;4989695;28;20085;-67
2022/03/20 00:46:12;;;;;;;1999.90;999.90;;;;;;;1.60;50.12;162823.28;4979727;28;20097;-67
2022/03/20 00:48:39;;;;;;;1999.90;999.90;;;;;;;1.47;51.63;162789.03;4980487;28;20062;-67
2022/03/20 00:51:10;;;;;;;1999.90;999.90;;;;;;;2.13;49.79;162964.25;4978571;28;20216;-67
2022/03/20 00:53:37;;;;;;;1999.90;999.90;;;;;;;2.76;47.67;163132.72;4983456;28;20047;-68
2022/03/20 00:56:04;;;;;;;1999.90;999.90;;;;;;;1.86;50.05;162894.47;4994368;28;20446;-67
2022/03/20 00:58:30;;;;;;;1999.90;999.90;;;;;;;2.37;49.16;163028.66;4981740;28;20140;-67
2022/03/20 01:00:57;;;;;;;1999.90;999.90;;;;;;;2.90;47.40;163171.06;4989097;28;20077;-68
2022/03/20 01:03:23;;;;;;;1999.90;999.90;;;;;;;2.99;46.53;163194.34;4978060;28;20429;-68
2022/03/20 01:05:50;;;;;;;1999.90;999.90;;;;;;;2.92;46.81;163176.56;4978581;28;20527;-68
2022/03/20 01:08:17;;;;;;;1999.90;999.90;;;;;;;2.34;48.80;163021.78;4975756;28;20050;-68
2022/03/20 01:10:44;;;;;;;1999.90;999.90;;;;;;;2.18;49.55;162977.97;4987543;28;20054;-68
2022/03/20 01:13:10;;;;;;;1999.90;999.90;;;;;;;2.10;49.12;162958.78;4989866;28;20427;-68
2022/03/20 01:15:37;;;;;;;1999.90;999.90;;;;;;;2.38;48.97;163032.75;4975879;28;20126;-68
2022/03/20 01:18:03;;;;;;;1999.90;999.90;;;;;;;2.59;48.73;163087.50;4981770;28;20469;-68
2022/03/20 01:20:30;;;;;;;1999.90;999.90;;;;;;;2.44;48.62;163049.19;4973091;28;20051;-68
2022/03/20 01:22:57;;;;;;;1999.90;999.90;;;;;;;2.39;48.66;163034.09;4988075;28;20518;-68
2022/03/20 01:25:23;;;;;;;1999.90;999.90;;;;;;;2.62;48.17;163097.09;4979040;28;20482;-68
2022/03/20 01:27:50;;;;;;;1999.90;999.90;;;;;;;2.87;47.07;163162.84;4980281;28;20448;-68
2022/03/20 01:30:16;;;;;;;1999.90;999.90;;;;;;;2.75;47.73;163131.31;4989117;28;20058;-67
2022/03/20 01:32:43;;;;;;;1999.90;999.90;;;;;;;1.91;49.79;162906.78;4980351;28;20081;-68
2022/03/20 01:35:10;;;;;;;1999.90;999.90;;;;;;;1.88;50.04;162898.56;4983874;28;20066;-68
2022/03/20 01:37:36;;;;;;;1999.90;999.90;;;;;;;2.08;49.41;162953.31;4970845;28;20109;-68
2022/03/20 01:40:04;;;;;;;1999.90;999.90;;;;;;;2.07;49.44;162949.19;4985790;28;20333;-68
2022/03/20 01:42:32;;;;;;;1999.90;999.90;;;;;;;2.28;49.17;163006.72;4977678;28;20140;-67
2022/03/20 01:44:58;;;;;;;1999.90;999.90;;;;;;;1.88;50.10;162898.56;5001977;28;20046;-67
2022/03/20 01:47:25;;;;;;;1999.90;999.90;;;;;;;1.75;51.28;162865.66;4996372;28;20092;-67
2022/03/20 01:49:51;;;;;;;1999.90;999.90;;;;;;;1.42;51.51;162775.38;4977823;28;20058;-67
2022/03/20 01:52:24;;;;;;;1999.90;999.90;;;;;;;1.73;50.82;162860.22;4992477;28;20455;-68
2022/03/20 01:54:51;;;;;;;1999.90;999.90;;;;;;;1.71;51.13;162854.75;4976866;28;20105;-67
2022/03/20 01:57:20;;;;;;;1999.90;999.90;;;;;;;2.26;49.41;162999.84;4981686;28;20054;-68
2022/03/20 01:59:51;;;;;;;1999.90;999.90;;;;;;;1.73;50.01;162860.22;4992153;28;20112;-68
2022/03/20 02:02:18;;;;;;;1999.90;999.90;;;;;;;1.94;50.49;162916.31;4974152;28;20073;-67
2022/03/20 02:04:45;;;;;;;1999.90;999.90;;;;;;;2.07;49.61;162950.56;4984972;28;20352;-68
2022/03/20 02:07:13;;;;;;;1999.90;999.90;;;;;;;2.16;49.62;162973.88;4983789;28;20046;-68
2022/03/20 02:09:41;;;;;;;1999.90;999.90;;;;;;;1.80;50.19;162877.97;4990077;28;20136;-67
2022/03/20 02:12:10;;;;;;;1999.90;999.90;;;;;;;1.01;51.70;162668.63;4981878;28;20058;-67
2022/03/20 02:14:36;;;;;;;1999.90;999.90;;;;;;;1.24;51.57;162728.84;4988472;28;20113;-67
2022/03/20 02:17:04;;;;;;;1999.90;999.90;;;;;;;1.73;50.69;162858.88;4987345;28;20589;-67
2022/03/20 02:19:34;;;;;;;1999.90;999.90;;;;;;;1.11;52.07;162694.59;4979288;28;20129;-67
2022/03/20 02:22:01;;;;;;;1999.90;999.90;;;;;;;1.20;51.16;162717.88;4988551;28;20395;-68
2022/03/20 02:24:40;;;;;;;1999.90;999.90;;;;;;;1.03;51.75;162674.09;4980473;28;20054;-67
2022/03/20 02:27:14;;;;;;;1999.90;999.90;;;;;;;1.23;51.21;162726.06;4987291;28;20073;-67
2022/03/20 02:29:42;;;;;;;1999.90;999.90;;;;;;;0.93;52.60;162646.72;4978593;28;20439;-67
2022/03/20 02:32:12;;;;;;;1999.90;999.90;;;;;;;1.24;52.37;162728.84;4984554;28;20050;-67
2022/03/20 02:34:39;;;;;;;1999.90;999.90;;;;;;;1.35;51.50;162758.91;4987831;28;20054;-67
2022/03/20 02:37:06;;;;;;;1999.90;999.90;;;;;;;0.74;52.93;162594.75;4974621;28;20082;-67
2022/03/20 02:39:33;;;;;;;1999.90;999.90;;;;;;;0.63;53.65;162567.38;4977069;28;20145;-67
2022/03/20 02:42:02;;;;;;;1999.90;999.90;;;;;;;1.56;51.80;162813.66;4983788;28;20185;-67
2022/03/20 02:44:55;;;;;;;1999.90;999.90;;;;;;;1.66;50.81;162841.03;4983974;28;20160;-68
2022/03/20 02:47:26;;;;;;;1999.90;999.90;;;;;;;1.21;52.35;162720.63;4972237;28;20507;-67
2022/03/20 02:49:58;;;;;;;1999.90;999.90;;;;;;;0.84;52.45;162623.47;4982499;28;20336;-67
2022/03/20 02:52:52;;;;;;;1999.90;999.90;;;;;;;1.18;52.92;162713.78;4975799;28;20250;-67
2022/03/20 02:55:27;;;;;;;1999.90;999.90;;;;;;;1.68;51.63;162846.53;4979803;28;20372;-67
2022/03/20 02:57:55;;;;;;;1999.90;999.90;;;;;;;1.70;51.28;162850.66;4988699;28;20132;-68
2022/03/20 03:00:25;;;;;;;1999.90;999.90;;;;;;;0.89;53.76;162635.78;4974388;28;20508;-67
2022/03/20 03:02:56;;;;;;;1999.90;999.90;;;;;;;1.41;51.88;162773.97;4988165;28;20058;-67
2022/03/20 03:05:26;;;;;;;1999.90;999.90;;;;;;;1.05;52.83;162678.19;4979107;28;20062;-67
2022/03/20 03:10:59;;;;;;;1999.90;999.90;;;;;;;0.90;52.85;162638.53;4978439;28;20530;-68
2022/03/20 03:13:34;;;;;;;1999.90;999.90;;;;;;;1.24;51.96;162728.84;4971157;28;20085;-67
2022/03/20 03:16:03;;;;;;;1999.90;999.90;;;;;;;0.82;53.03;162616.59;4974879;28;20182;-67
2022/03/20 03:18:30;;;;;;;1999.90;999.90;;;;;;;0.87;53.69;162630.31;4988363;28;20050;-68
2022/03/20 03:20:57;;;;;;;1999.90;999.90;;;;;;;1.23;52.94;162726.06;4986333;28;20097;-68
2022/03/20 03:23:26;;;;;;;1999.90;999.90;;;;;;;1.42;52.20;162776.72;4972526;28;20083;-67
2022/03/20 03:25:54;;;;;;;1999.90;999.90;;;;;;;0.50;53.91;162531.81;4982426;28;20081;-67
2022/03/20 03:28:22;;;;;;;1999.90;999.90;;;;;;;0.65;53.84;162572.84;4971899;28;20104;-67
2022/03/20 03:30:49;;;;;;;1999.90;999.90;;;;;;;0.99;53.40;162661.78;4987022;28;20140;-68
2022/03/20 03:33:20;;;;;;;1999.90;999.90;;;;;;;1.44;52.34;162782.19;4965822;28;20470;-68
2022/03/20 03:35:53;;;;;;;1999.90;999.90;;;;;;;1.35;51.63;162758.91;4979319;28;20105;-67
2022/03/20 03:38:23;;;;;;;1999.90;999.90;;;;;;;0.82;53.24;162616.59;4985622;28;20061;-67
2022/03/20 03:40:50;;;;;;;1999.90;999.90;;;;;;;1.13;53.03;162700.13;4966230;28;20085;-68
2022/03/20 03:43:18;;;;;;;1999.90;999.90;;;;;;;1.01;53.22;162668.63;4987520;28;20104;-68
2022/03/20 03:45:46;;;;;;;1999.90;999.90;;;;;;;1.45;52.59;162783.59;4972152;28;20093;-68
2022/03/20 03:48:14;;;;;;;1999.90;999.90;;;;;;;1.90;50.46;162904.00;4982070;28;20066;-68
2022/03/20 03:50:43;;;;;;;1999.90;999.90;;;;;;;2.13;50.17;162965.66;4974452;28;20087;-68
2022/03/20 03:53:11;;;;;;;1999.90;999.90;;;;;;;2.22;49.60;162988.88;4987084;28;20054;-68
2022/03/20 03:55:39;;;;;;;1999.90;999.90;;;;;;;1.69;50.67;162849.25;4981612;28;20109;-68
2022/03/20 03:58:06;;;;;;;1999.90;999.90;;;;;;;1.45;52.03;162783.59;4977418;28;20268;-68
2022/03/20 04:00:34;;;;;;;1999.90;999.90;;;;;;;1.21;52.28;162720.63;4984791;28;20478;-68
2022/03/20 04:03:01;;;;;;;1999.90;999.90;;;;;;;1.36;51.77;162761.66;4977175;28;20050;-68
2022/03/20 04:05:29;;;;;;;1999.90;999.90;;;;;;;1.74;51.00;162862.97;4986354;28;20526;-68
2022/03/20 04:07:56;;;;;;;1999.90;999.90;;;;;;;1.36;51.90;162761.66;4979928;28;20059;-68
2022/03/20 04:10:23;;;;;;;1999.90;999.90;;;;;;;1.40;52.29;162771.25;4982240;28;20059;-68
2022/03/20 04:12:50;;;;;;;1999.90;999.90;;;;;;;1.29;52.24;162742.50;4986658;28;20109;-68
2022/03/20 04:15:23;;;;;;;1999.90;999.90;;;;;;;0.88;53.33;162633.06;4981506;28;20073;-67
2022/03/20 04:17:51;;;;;;;1999.90;999.90;;;;;;;1.52;52.25;162802.69;4986280;28;20082;-68
2022/03/20 04:20:17;;;;;;;1999.90;999.90;;;;;;;1.22;52.70;162724.72;4976375;28;20388;-68
2022/03/20 04:25:29;;;;;;;1999.90;999.90;;;;;;;1.35;52.29;162758.91;4979027;28;20400;-68
2022/03/20 04:27:56;;;;;;;1999.90;999.90;;;;;;;1.32;52.44;162750.69;4985232;28;20079;-68
2022/03/20 04:30:28;;;;;;;1999.90;999.90;;;;;;;0.95;52.90;162652.19;4985584;28;20160;-68
2022/03/20 04:32:55;;;;;;;1999.90;999.90;;;;;;;1.25;52.28;162731.59;4975147;28;20058;-68
2022/03/20 04:35:24;;;;;;;1999.90;999.90;;;;;;;0.58;54.09;162552.34;4986116;28;20069;-68
2022/03/20 04:37:53;;;;;;;1999.90;999.90;;;;;;;0.90;53.60;162638.53;4966337;28;20055;-68
2022/03/20 04:40:19;;;;;;;1999.90;999.90;;;;;;;0.88;53.97;162634.41;4983781;28;20411;-68
2022/03/20 04:42:47;;;;;;;1999.90;999.90;;;;;;;1.05;53.22;162679.53;4985482;28;20119;-68
2022/03/20 04:45:13;;;;;;;1999.90;999.90;;;;;;;0.84;53.28;162623.47;4980241;28;20077;-68
2022/03/20 04:58:43;;;;;;;1999.90;999.90;;;;;;;0.30;55.62;162478.53;4984632;28;20116;-66
2022/03/20 05:01:09;;;;;;;1999.90;999.90;;;;;;;0.62;54.92;162564.63;4975331;28;20066;-67
2022/03/20 05:03:36;;;;;;;1999.90;999.90;;;;;;;0.84;54.74;162622.09;4986455;28;20137;-67
2022/03/20 05:06:05;;;;;;;1999.90;999.90;;;;;;;0.15;56.19;162440.22;4983369;28;20206;-66
2022/03/20 05:08:35;;;;;;;1999.90;999.90;;;;;;;0.27;56.06;162471.66;4973224;28;20059;-66
2022/03/20 05:13:48;;;;;;;1999.90;999.90;;;;;;;0.28;56.60;162474.41;4972126;28;20132;-66
2022/03/20 05:16:14;;;;;;;1999.90;999.90;;;;;;;0.44;56.12;162516.78;4993266;28;20117;-67
2022/03/20 05:18:41;;;;;;;1999.90;999.90;;;;;;;0.65;55.00;162571.50;4972865;28;20089;-67
2022/03/20 05:21:09;;;;;;;1999.90;999.90;;;;;;;0.97;54.80;162656.28;4981859;28;20085;-67
2022/03/20 05:23:37;;;;;;;1999.90;999.90;;;;;;;0.38;55.71;162499.03;4981623;28;20089;-67
2022/03/20 05:26:04;;;;;;;1999.90;999.90;;;;;;;0.95;54.88;162652.19;4988665;28;20341;-67
2022/03/20 05:28:30;;;;;;;1999.90;999.90;;;;;;;0.93;55.25;162645.38;4988817;28;20157;-68
2022/03/20 05:30:57;;;;;;;1999.90;999.90;;;;;;;0.61;55.82;162560.53;4979324;28;20078;-68
2022/03/20 05:33:24;;;;;;;1999.90;999.90;;;;;;;1.04;55.08;162676.84;5003071;28;20061;-68
2022/03/20 05:35:50;;;;;;;1999.90;999.90;;;;;;;0.64;55.79;162570.13;4979420;28;20411;-67
2022/03/20 05:38:17;;;;;;;1999.90;999.90;;;;;;;0.86;55.46;162628.97;4986060;28;20381;-67
2022/03/20 05:40:45;;;;;;;1999.90;999.90;;;;;;;0.94;55.54;162649.47;4987714;28;20054;-68
2022/03/20 05:43:11;;;;;;;1999.90;999.90;;;;;;;0.68;55.59;162581.03;4977754;28;20109;-68
2022/03/20 05:45:39;;;;;;;1999.90;999.90;;;;;;;0.01;57.91;162401.91;4988427;28;20104;-68
2022/03/20 05:48:08;;;;;;;1999.90;999.90;;;;;;;-0.55;59.32;162254.31;4978791;28;20050;-67
2022/03/20 05:50:36;;;;;;;1999.90;999.90;;;;;;;-0.49;60.20;162267.97;4982995;28;20408;-67
2022/03/20 05:53:02;;;;;;;1999.90;999.90;;;;;;;-0.09;58.23;162375.97;4986157;28;20050;-67
2022/03/20 05:58:15;;;;;;;1999.90;999.90;;;;;;;0.05;59.66;162412.88;4990507;28;20113;-68
2022/03/20 06:00:42;;;;;;;1999.90;999.90;;;;;;;0.85;56.51;162624.88;4976094;28;20078;-67
2022/03/20 06:03:12;;;;;;;1999.90;999.90;;;;;;;0.15;58.08;162438.88;4988494;28;20112;-67
2022/03/20 06:05:40;;;;;;;1999.90;999.90;;;;;;;0.89;56.75;162635.78;4980411;28;20357;-68
2022/03/20 06:08:06;;;;;;;1999.90;999.90;;;;;;;1.07;55.29;162682.28;4986135;28;20439;-67
2022/03/20 06:10:34;;;;;;;1999.90;999.90;;;;;;;0.99;55.50;162663.13;4976608;28;20204;-67
2022/03/20 06:13:05;;;;;;;1999.90;999.90;;;;;;;0.85;56.22;162626.22;4988445;28;20128;-67
2022/03/20 06:15:32;;;;;;;1999.90;999.90;;;;;;;1.20;56.17;162719.22;4988330;28;20046;-67
2022/03/20 06:18:03;;;;;;;1999.90;999.90;;;;;;;1.49;54.63;162795.91;4978745;28;20050;-68
2022/03/20 06:20:34;;;;;;;1999.90;999.90;;;;;;;1.05;55.29;162678.19;4988248;28;20468;-67
2022/03/20 06:23:02;;;;;;;1999.90;999.90;;;;;;;1.06;55.49;162680.94;4969105;28;20436;-67
2022/03/20 06:25:28;;;;;;;1999.90;999.90;;;;;;;0.59;57.58;162556.44;4980886;28;20046;-67
2022/03/20 06:28:00;;;;;;;1999.90;999.90;;;;;;;0.52;58.27;162537.28;4973757;28;20155;-67
2022/03/20 06:30:27;;;;;;;1999.90;999.90;;;;;;;1.11;56.26;162694.59;4982522;28;20050;-67
2022/03/20 06:32:55;;;;;;;1999.90;999.90;;;;;;;1.28;56.33;162739.78;4987030;28;20066;-68
2022/03/20 06:35:21;;;;;;;1999.90;999.90;;;;;;;1.57;54.81;162816.41;4976840;28;20054;-68
2022/03/20 06:37:55;;;;;;;1999.90;999.90;;;;;;;1.48;55.21;162791.78;4988154;28;20444;-67
2022/03/20 06:40:22;;;;;;;1999.90;999.90;;;;;;;1.57;55.47;162816.41;4977587;28;20105;-67
2022/03/20 06:42:48;;;;;;;1999.90;999.90;;;;;;;1.72;55.75;162857.47;4988227;28;20061;-67
2022/03/20 06:45:15;;;;;;;1999.90;999.90;;;;;;;2.10;54.09;162958.78;4976448;28;20078;-67
2022/03/20 06:47:43;;;;;;;1999.90;999.90;;;;;;;2.33;53.37;163017.69;4983495;28;20104;-67
2022/03/20 06:50:11;;;;;;;1999.90;999.90;;;;;;;3.08;51.51;163219.06;4987225;28;20379;-67
2022/03/20 06:52:39;;;;;;;1999.90;999.90;;;;;;;3.35;50.43;163290.31;4985473;28;20051;-67
2022/03/20 06:55:08;;;;;;;1999.90;999.90;;;;;;;3.08;51.24;163219.06;4978864;28;20505;-67
2022/03/20 06:57:35;;;;;;;1999.90;999.90;;;;;;;3.06;50.70;163212.19;4972137;28;20050;-67
2022/03/20 07:00:05;;;;;;;1999.90;999.90;;;;;;;3.19;51.10;163247.81;4978594;28;20054;-67
2022/03/20 07:02:31;;;;;;;1999.90;999.90;;;;;;;3.76;49.78;163399.94;4983284;28;20046;-67
2022/03/20 07:04:58;;;;;;;1999.90;999.90;;;;;;;4.14;49.82;163501.41;4985058;28;20506;-68
2022/03/20 07:07:24;;;;;;;1999.90;999.90;;;;;;;2.82;52.20;163149.16;4985875;28;20058;-67
2022/03/20 07:09:51;;;;;;;1999.90;999.90;;;;;;;3.39;51.76;163301.25;4976914;28;20054;-67
2022/03/20 07:12:18;;;;;;;1999.90;999.90;;;;;;;3.75;50.59;163397.22;4987032;28;20518;-67
2022/03/20 07:14:44;;;;;;;1999.90;999.90;;;;;;;4.38;49.14;163565.84;4985181;28;20142;-67
2022/03/20 07:17:13;;;;;;;1999.90;999.90;;;;;;;3.82;49.70;163416.38;4990589;28;20373;-67
2022/03/20 07:19:44;;;;;;;1999.90;999.90;;;;;;;3.59;49.74;163353.31;4986344;28;20088;-67
2022/03/20 07:22:13;;;;;;;1999.90;999.90;;;;;;;3.89;49.35;163434.22;4978013;28;20216;-67
2022/03/20 07:24:41;;;;;;;1999.90;999.90;;;;;;;4.53;47.42;163605.63;4982731;28;20121;-67
2022/03/20 07:29:54;;;;;;;1999.90;999.90;;;;;;;5.10;45.65;163756.53;4984937;28;20096;-67
2022/03/20 07:32:21;;;;;;;1999.90;999.90;;;;;;;5.35;45.12;163823.78;4978123;28;20132;-67
2022/03/20 07:34:48;;;;;;;1999.90;999.90;;;;;;;5.46;43.69;163852.59;4987920;28;20047;-66
2022/03/20 07:37:16;;;;;;;1999.90;999.90;;;;;;;5.33;43.93;163816.91;4989236;28;20407;-66
2022/03/20 07:39:48;;;;;;;1999.90;999.90;;;;;;;5.95;43.94;163983.00;4979016;28;20062;-67
2022/03/20 07:42:16;;;;;;;1999.90;999.90;;;;;;;5.52;44.01;163869.06;4985902;28;20109;-66
2022/03/20 07:44:43;;;;;;;1999.90;999.90;;;;;;;4.74;45.80;163660.50;4978520;28;20050;-67
2022/03/20 07:47:17;;;;;;;1999.90;999.90;;;;;;;4.79;45.36;163672.84;4987364;28;20103;-67
2022/03/20 07:49:45;;;;;;;1999.90;999.90;;;;;;;5.88;42.91;163965.19;4967618;28;20435;-67
2022/03/20 07:52:12;;;;;;;1999.90;999.90;;;;;;;6.64;42.04;164167.06;4995469;28;20452;-68
2022/03/20 07:54:38;;;;;;;1999.90;999.90;;;;;;;6.67;42.19;164176.72;4979944;28;20058;-68
2022/03/20 07:57:07;;;;;;;1999.90;999.90;;;;;;;6.62;41.90;164161.59;4976519;28;20086;-67
2022/03/20 07:59:34;;;;;;;1999.90;999.90;;;;;;;7.43;39.99;164377.28;4986152;28;20114;-67
2022/03/20 08:02:01;;;;;;;1999.90;999.90;;;;;;;6.94;39.88;164248.16;4980615;28;20054;-67
2022/03/20 08:04:28;;;;;;;1999.90;999.90;;;;;;;7.18;39.42;164311.34;4988612;28;20379;-68
2022/03/20 08:06:54;;;;;;;1999.90;999.90;;;;;;;7.51;38.31;164399.31;4979693;28;20054;-68
2022/03/20 08:09:21;;;;;;;1999.90;999.90;;;;;;;7.20;38.52;164316.84;4987832;28;20066;-67
2022/03/20 08:11:47;;;;;;;1999.90;999.90;;;;;;;7.34;38.01;164355.31;4984078;28;20050;-67
2022/03/20 08:14:14;;;;;;;1999.90;999.90;;;;;;;7.34;38.10;164355.31;4980378;28;20116;-68
2022/03/20 08:16:41;;;;;;;1999.90;999.90;;;;;;;8.44;37.04;164649.59;4978955;28;20082;-67
2022/03/20 08:19:09;;;;;;;1999.90;999.90;;;;;;;8.49;36.41;164660.59;4975026;28;20200;-68
2022/03/20 08:21:35;;;;;;;1999.90;999.90;;;;;;;9.38;34.75;164899.97;4988458;28;20054;-68
2022/03/20 08:24:03;;;;;;;1999.90;999.90;;;;;;;9.71;32.97;164988.03;4979767;28;20443;-68
2022/03/20 08:26:33;;;;;;;1999.90;999.90;;;;;;;9.37;34.06;164895.84;4987802;28;20097;-68
2022/03/20 08:29:00;;;;;;;1999.90;999.90;;;;;;;9.37;34.22;164897.19;4987743;28;20132;-68
2022/03/20 08:31:28;;;;;;;1999.90;999.90;;;;;;;9.69;33.82;164982.50;4978004;28;20131;-68
2022/03/20 08:33:58;;;;;;;1999.90;999.90;;;;;;;9.74;33.52;164996.28;4978400;28;20053;-68
2022/03/20 08:36:26;;;;;;;1999.90;999.90;;;;;;;9.98;32.43;165059.63;4971612;28;20125;-67
2022/03/20 08:38:52;;;;;;;1999.90;999.90;;;;;;;10.87;31.81;165297.91;4982503;28;20050;-67
2022/03/20 08:41:19;;;;;;;1999.90;999.90;;;;;;;10.73;31.33;165260.69;4979411;28;20081;-67
2022/03/20 08:43:46;;;;;;;1999.90;999.90;;;;;;;10.19;32.04;165116.06;4977601;28;20050;-67
2022/03/20 08:46:15;;;;;;;1999.90;999.90;;;;;;;9.07;32.30;164817.38;4998556;28;20713;-67
2022/03/20 08:48:42;;;;;;;1999.90;999.90;;;;;;;8.48;35.70;164657.81;4978141;28;20057;-66
2022/03/20 08:51:08;;;;;;;1999.90;999.90;;;;;;;9.49;32.80;164930.19;4985121;28;20601;-67
2022/03/20 08:53:35;;;;;;;1999.90;999.90;;;;;;;10.33;31.71;165153.22;4963541;28;20090;-67
2022/03/20 08:56:02;;;;;;;1999.90;999.90;;;;;;;10.81;31.15;165282.75;5000169;28;20104;-67
2022/03/20 08:58:29;;;;;;;1999.90;999.90;;;;;;;10.83;30.81;165288.25;4982090;28;20046;-67
2022/03/20 09:00:57;;;;;;;1999.90;999.90;;;;;;;10.03;33.71;165073.38;4979177;28;20090;-67
2022/03/20 09:03:24;;;;;;;1999.90;999.90;;;;;;;10.29;33.25;165142.22;4983699;28;20072;-67
2022/03/20 09:05:51;;;;;;;1999.90;999.90;;;;;;;11.06;32.84;165348.84;4970420;28;20051;-67
2022/03/20 09:08:18;;;;;;;1999.90;999.90;;;;;;;11.69;29.63;165516.97;4977850;28;20722;-67
2022/03/20 09:10:45;;;;;;;1999.90;999.90;;;;;;;12.47;28.98;165726.53;4980800;28;20069;-67
2022/03/20 09:13:12;;;;;;;1999.90;999.90;;;;;;;13.26;28.04;165938.91;4989510;28;20050;-67
2022/03/20 09:15:38;;;;;;;1999.90;999.90;;;;;;;12.76;26.07;165803.72;4996527;28;20100;-67
2022/03/20 09:20:50;;;;;;;1999.90;999.90;;;;;;;12.69;27.19;165785.84;4990077;28;20109;-67
2022/03/20 09:23:17;;;;;;;1999.90;999.90;;;;;;;12.29;26.94;165679.66;4979429;28;20089;-67
2022/03/20 09:25:43;;;;;;;1999.90;999.90;;;;;;;12.39;27.57;165704.50;4991425;28;20047;-67
2022/03/20 09:28:11;;;;;;;1999.90;999.90;;;;;;;12.84;25.59;165825.81;4982585;28;20054;-67
2022/03/20 09:30:40;;;;;;;1999.90;999.90;;;;;;;13.79;25.44;166079.72;4991624;28;20058;-68
2022/03/20 09:33:08;;;;;;;1999.90;999.90;;;;;;;13.53;24.52;166012.13;4989544;28;20054;-68
2022/03/20 09:35:36;;;;;;;1999.90;999.90;;;;;;;13.41;24.61;165977.59;4964011;28;20082;-68
2022/03/20 09:38:04;;;;;;;1999.90;999.90;;;;;;;11.84;25.93;165556.94;4985441;28;20046;-68
2022/03/20 09:40:35;;;;;;;1999.90;999.90;;;;;;;12.84;26.34;165827.19;4978005;28;20054;-68
2022/03/20 09:43:02;;;;;;;1999.90;999.90;;;;;;;13.38;24.35;165972.09;4989464;28;20050;-68
2022/03/20 09:45:29;;;;;;;1999.90;999.90;;;;;;;13.48;24.16;165996.94;4980608;28;20097;-68
2022/03/20 09:47:57;;;;;;;1999.90;999.90;;;;;;;12.52;25.70;165740.34;4981511;28;20102;-69
2022/03/20 09:50:24;;;;;;;1999.90;999.90;;;;;;;13.51;24.48;166005.22;4980990;28;20144;-68
2022/03/20 09:52:51;;;;;;;1999.90;999.90;;;;;;;13.70;25.31;166057.63;4979653;28;20081;-68
2022/03/20 09:55:17;;;;;;;1999.90;999.90;;;;;;;13.35;25.37;165963.84;4987863;28;20102;-69
2022/03/20 09:57:44;;;;;;;1999.90;999.90;;;;;;;13.80;25.21;166082.47;4967101;28;20179;-68
2022/03/20 10:00:11;;;;;;;1999.90;999.90;;;;;;;14.32;25.00;166221.84;4986092;28;20238;-68
2022/03/20 10:02:38;;;;;;;1999.90;999.90;;;;;;;14.10;24.66;166163.91;4988508;28;20065;-68
2022/03/20 10:05:08;;;;;;;1999.90;999.90;;;;;;;14.23;25.26;166198.38;4979487;28;20463;-68
2022/03/20 10:07:40;;;;;;;1999.90;999.90;;;;;;;14.09;24.96;166162.50;4989672;28;20050;-68
2022/03/20 10:10:25;;;;;;;1999.90;999.90;;;;;;;14.73;24.83;166333.72;4977263;28;20054;-68
2022/03/20 10:12:55;;;;;;;1999.90;999.90;;;;;;;15.14;23.81;166442.88;4988201;28;20061;-68
2022/03/20 10:15:36;;;;;;;1999.90;999.90;;;;;;;12.78;27.12;165810.66;4982001;28;20054;-68
2022/03/20 10:18:05;;;;;;;1999.90;999.90;;;;;;;12.71;26.58;165789.97;4989637;28;20372;-68
2022/03/20 10:20:49;;;;;;;1999.90;999.90;;;;;;;13.60;25.36;166030.03;4978490;28;20054;-68
2022/03/20 10:23:31;;;;;;;1999.90;999.90;;;;;;;13.49;25.40;165999.72;4989518;28;20046;-68
2022/03/20 10:26:00;;;;;;;1999.90;999.90;;;;;;;13.61;24.43;166032.81;4986509;28;20042;-68
2022/03/20 10:28:42;;;;;;;1999.90;999.90;;;;;;;13.58;25.26;166024.53;4980863;28;20132;-68
2022/03/20 10:31:12;;;;;;;1999.90;999.90;;;;;;;14.99;24.37;166402.81;4986085;28;20108;-68
2022/03/20 10:33:40;;;;;;;1999.90;999.90;;;;;;;14.50;23.92;166270.16;4977824;28;20366;-68
2022/03/20 10:36:19;;;;;;;1999.90;999.90;;;;;;;14.77;23.51;166344.78;4983383;28;20053;-68
2022/03/20 10:38:48;;;;;;;1999.90;999.90;;;;;;;14.54;21.73;166281.22;4980525;28;20096;-67
2022/03/20 10:41:34;;;;;;;1999.90;999.90;;;;;;;14.83;21.33;166360.00;4986389;28;20078;-68
2022/03/20 10:44:27;;;;;;;1999.90;999.90;;;;;;;14.99;21.94;166402.81;4981771;28;20045;-68
2022/03/20 10:47:04;;;;;;;1999.90;999.90;;;;;;;14.78;21.56;166347.56;4985629;28;20039;-68
2022/03/20 10:49:32;;;;;;;;;;;;;;;15.04;21.95;166416.59;4980210;28;20348;-68
2022/03/20 10:52:10;;;;;;;1999.90;999.90;;;;;;;14.40;22.98;166245.34;4987488;28;19961;-68
2022/03/20 10:54:42;;;;;;;1999.90;999.90;;;;;;;14.06;21.88;166154.22;4971106;28;20113;-67
2022/03/20 10:57:11;;;;;;;1999.90;999.90;;;;;;;13.97;21.71;166128.03;4980950;28;20125;-67
2022/03/20 10:59:39;;;;;;;1999.90;999.90;;;;;;;14.30;21.83;166216.34;4988326;28;20118;-68
2022/03/20 11:02:19;;;;;;;1999.90;999.90;;;;;;;14.41;21.63;166248.09;4971014;28;20062;-68
2022/03/20 11:04:46;;;;;;;1999.90;999.90;;;;;;;14.06;22.79;166154.22;4989491;28;20062;-67
2022/03/20 11:07:16;;;;;;;1999.90;999.90;;;;;;;14.87;22.36;166369.63;4982200;28;20851;-68
2022/03/20 11:09:54;;;;;;;1999.90;999.90;;;;;;;15.16;23.44;166448.38;4984239;28;20128;-68
2022/03/20 11:12:27;;;;;;;1999.90;999.90;;;;;;;15.35;21.96;166498.06;4989182;28;20112;-68
2022/03/20 11:14:58;;;;;;;1999.90;999.90;;;;;;;15.89;22.15;166643.22;4978739;28;20047;-68
2022/03/20 11:17:29;;;;;;;1999.90;999.90;;;;;;;15.68;21.43;166587.88;4989636;28;20105;-68
2022/03/20 11:19:57;;;;;;;1999.90;999.90;;;;;;;14.78;22.01;166347.56;4974464;28;20133;-68
2022/03/20 11:22:25;;;;;;;1999.90;999.90;;;;;;;13.28;22.34;165943.03;4988728;28;20054;-68
2022/03/20 11:24:55;;;;;;;1999.90;999.90;;;;;;;13.43;22.71;165983.09;4977781;28;20085;-67
2022/03/20 11:27:27;;;;;;;1999.90;999.90;;;;;;;14.72;21.63;166331.00;4986137;28;20102;-67